createdAt,value
2018-09-20T00:01:45.555Z,6.10
2018-09-20T00:04:15.039Z,5.70
2018-09-20T00:06:55.862Z,7.10
2018-09-20T00:09:25.407Z,7.67
2018-09-20T00:11:56.971Z,7.40
2018-09-20T00:14:26.491Z,9.53
2018-09-20T00:16:57.271Z,6.20
2018-09-20T00:19:26.929Z,6.67
2018-09-20T00:21:57.495Z,6.97
2018-09-20T00:24:28.064Z,6.50
2018-09-20T00:27:05.095Z,9.33
2018-09-20T00:29:34.715Z,8.10
2018-09-20T00:32:09.735Z,9.20
2018-09-20T00:34:41.311Z,7.40
2018-09-20T00:37:12.927Z,9.80
2018-09-20T00:39:44.455Z,8.50
2018-09-20T00:42:16.038Z,6.80
2018-09-20T00:44:45.615Z,6.93
2018-09-20T00:47:18.555Z,7.80
2018-09-20T00:49:49.210Z,7.53
2018-09-20T00:52:18.990Z,7.70
2018-09-20T00:54:49.898Z,8.70
2018-09-20T00:57:20.531Z,6.83
2018-09-20T00:59:55.958Z,7.80
2018-09-20T01:02:26.938Z,7.33
2018-09-20T01:05:09.083Z,12.07
2018-09-20T01:07:43.235Z,7.13
2018-09-20T01:10:13.806Z,8.30
2018-09-20T01:12:46.517Z,7.30
2018-09-20T01:15:16.030Z,9.67
2018-09-20T01:17:50.338Z,8.73
2018-09-20T01:20:21.807Z,9.70
2018-09-20T01:22:53.788Z,8.40
2018-09-20T01:25:24.595Z,7.33
2018-09-20T01:27:57.147Z,8.83
2018-09-20T01:30:31.234Z,9.70
2018-09-20T01:33:01.052Z,8.87
2018-09-20T01:35:33.019Z,8.43
2018-09-20T01:38:03.607Z,14.13
2018-09-20T01:40:46.890Z,8.37
2018-09-20T01:43:19.807Z,14.93
2018-09-20T01:45:49.267Z,8.43
2018-09-20T01:48:22.671Z,8.03
2018-09-20T01:50:56.698Z,7.30
2018-09-20T01:53:26.295Z,10.70
2018-09-20T01:55:56.815Z,8.20
2018-09-20T01:58:26.379Z,7.50
2018-09-20T02:00:59.838Z,11.60
2018-09-20T02:03:29.530Z,9.20
2018-09-20T02:06:00.343Z,7.57
2018-09-20T02:08:30.019Z,9.33
2018-09-20T02:11:01.766Z,17.13
2018-09-20T02:13:31.358Z,9.30
2018-09-20T02:16:02.101Z,10.00
2018-09-20T02:18:37.591Z,8.60
2018-09-20T02:21:09.183Z,11.33
2018-09-20T02:23:48.694Z,8.80
2018-09-20T02:26:24.954Z,10.53
2018-09-20T02:28:54.760Z,9.00
2018-09-20T02:31:26.230Z,8.93
2018-09-20T02:33:59.572Z,13.40
2018-09-20T02:36:29.359Z,9.07
2018-09-20T02:39:07.579Z,12.00
2018-09-20T02:41:38.507Z,8.07
2018-09-20T02:44:08.030Z,9.33
2018-09-20T02:46:43.591Z,12.47
2018-09-20T02:49:18.857Z,12.87
2018-09-20T02:51:54.155Z,11.20
2018-09-20T02:54:24.891Z,14.13
2018-09-20T02:56:58.023Z,10.80
2018-09-20T02:59:27.531Z,11.63
2018-09-20T03:01:58.326Z,12.93
2018-09-20T03:04:28.122Z,9.70
2018-09-20T03:06:58.883Z,8.63
2018-09-20T03:09:34.162Z,9.63
2018-09-20T03:12:04.750Z,14.77
2018-09-20T03:14:34.358Z,11.40
2018-09-20T03:17:04.183Z,13.40
2018-09-20T03:19:33.842Z,9.30
2018-09-20T03:22:09.315Z,10.40
2018-09-20T03:24:40.822Z,10.07
2018-09-20T03:27:15.422Z,10.80
2018-09-20T03:29:46.202Z,10.97
2018-09-20T03:32:16.041Z,17.70
2018-09-20T03:34:54.075Z,15.83
2018-09-20T03:37:24.739Z,16.27
2018-09-20T03:40:04.251Z,12.10
2018-09-20T03:42:34.024Z,17.10
2018-09-20T03:45:05.659Z,14.67
2018-09-20T03:47:36.151Z,15.30
2018-09-20T03:50:10.428Z,13.33
2018-09-20T03:52:45.650Z,17.10
2018-09-20T03:55:19.414Z,15.40
2018-09-20T03:57:54.142Z,18.70
2018-09-20T04:00:24.706Z,18.30
2018-09-20T04:03:07.089Z,15.37
2018-09-20T04:05:48.550Z,23.43
2018-09-20T04:08:27.719Z,14.80
2018-09-20T04:11:01.206Z,13.97
2018-09-20T04:13:38.054Z,14.73
2018-09-20T04:16:09.974Z,14.27
2018-09-20T04:18:40.567Z,14.70
2018-09-20T04:21:10.080Z,21.60
2018-09-20T04:23:40.833Z,13.13
2018-09-20T04:26:10.422Z,17.10
2018-09-20T04:28:42.290Z,15.67
2018-09-20T04:31:13.178Z,16.17
2018-09-20T04:33:48.826Z,21.60
2018-09-20T04:36:21.602Z,26.83
2018-09-20T04:38:56.603Z,13.20
2018-09-20T04:41:26.401Z,15.27
2018-09-20T04:43:55.986Z,13.70
2018-09-20T04:46:27.583Z,15.93
2018-09-20T04:48:58.383Z,13.23
2018-09-20T04:51:39.343Z,11.67
2018-09-20T04:54:16.603Z,15.00
2018-09-20T04:56:48.359Z,14.37
2018-09-20T04:59:20.963Z,12.87
2018-09-20T05:01:55.511Z,15.00
2018-09-20T05:04:29.995Z,14.40
2018-09-20T05:06:59.777Z,16.30
2018-09-20T05:09:29.575Z,14.27
2018-09-20T05:12:11.175Z,16.17
2018-09-20T05:14:43.007Z,30.80
2018-09-20T05:17:16.187Z,18.30
2018-09-20T05:19:52.291Z,16.30
2018-09-20T05:22:23.782Z,15.73
2018-09-20T05:24:57.595Z,22.13
2018-09-20T05:27:38.010Z,24.93
2018-09-20T05:30:09.502Z,18.67
2018-09-20T05:32:51.094Z,17.30
2018-09-20T05:35:25.931Z,20.50
2018-09-20T05:38:03.897Z,19.70
2018-09-20T05:44:03.594Z,20.10
2018-09-20T05:46:44.190Z,22.03
2018-09-20T05:49:27.098Z,31.77
2018-09-20T05:52:14.726Z,20.83
2018-09-20T05:55:08.082Z,29.50
2018-09-20T05:57:39.578Z,29.63
2018-09-20T06:00:09.450Z,25.33
2018-09-20T06:02:48.849Z,24.23
2018-09-20T06:05:23.666Z,23.63
2018-09-20T06:08:03.166Z,27.23
2018-09-20T06:10:36.726Z,24.47
2018-09-20T06:13:06.235Z,38.83
2018-09-20T06:15:49.526Z,27.47
2018-09-20T06:18:21.986Z,36.83
2018-09-20T06:20:51.978Z,27.80
2018-09-20T06:23:25.278Z,37.83
2018-09-20T06:26:24.259Z,27.53
2018-09-20T06:29:24.366Z,26.13
2018-09-20T06:31:54.986Z,37.10
2018-09-20T06:34:26.721Z,28.83
2018-09-20T06:36:56.360Z,24.10
2018-09-20T06:39:26.986Z,28.73
2018-09-20T06:41:57.591Z,26.83
2018-09-20T06:44:27.209Z,26.73
2018-09-20T06:47:07.414Z,24.60
2018-09-20T06:49:42.406Z,25.53
2018-09-20T06:52:13.870Z,26.63
2018-09-20T06:54:43.316Z,18.47
2018-09-20T06:57:19.291Z,22.80
2018-09-20T06:59:53.198Z,22.03
2018-09-20T07:02:26.370Z,29.60
2018-09-20T07:04:55.895Z,25.03
2018-09-20T07:07:41.874Z,25.13
2018-09-20T07:10:16.234Z,24.93
2018-09-20T07:12:46.007Z,21.90
2018-09-20T07:15:20.519Z,26.43
2018-09-20T07:17:54.182Z,33.03
2018-09-20T07:20:27.627Z,23.53
2018-09-20T07:23:13.503Z,23.90
2018-09-20T07:25:44.066Z,20.77
2018-09-20T07:28:14.734Z,23.13
2018-09-20T07:30:44.667Z,26.33
2018-09-20T07:33:14.475Z,17.93
2018-09-20T07:35:49.951Z,22.00
2018-09-20T07:38:22.802Z,21.23
2018-09-20T07:40:56.658Z,18.67
2018-09-20T07:43:27.480Z,23.53
2018-09-20T07:45:57.073Z,18.93
2018-09-20T07:48:26.530Z,19.93
2018-09-20T07:50:56.303Z,19.97
2018-09-20T07:53:27.982Z,21.77
2018-09-20T07:56:02.182Z,25.73
2018-09-20T07:58:39.130Z,24.10
2018-09-20T08:01:08.838Z,15.70
2018-09-20T08:03:38.442Z,16.90
2018-09-20T08:06:15.906Z,15.90
2018-09-20T08:08:45.566Z,14.20
2018-09-20T08:11:17.270Z,15.60
2018-09-20T08:13:50.078Z,17.63
2018-09-20T08:16:25.639Z,14.90
2018-09-20T08:18:56.162Z,12.67
2018-09-20T08:21:25.734Z,14.40
2018-09-20T08:26:50.938Z,15.67
2018-09-20T08:29:26.206Z,14.17
2018-09-20T08:31:58.006Z,13.70
2018-09-20T08:34:27.670Z,14.63
2018-09-20T08:37:09.162Z,15.23
2018-09-20T08:39:43.114Z,12.73
2018-09-20T08:42:25.413Z,17.30
2018-09-20T08:44:54.862Z,12.90
2018-09-20T08:47:29.698Z,12.03
2018-09-20T08:50:01.403Z,12.03
2018-09-20T08:52:41.302Z,10.97
2018-09-20T08:55:12.998Z,12.17
2018-09-20T08:57:51.398Z,20.00
2018-09-20T09:00:21.026Z,15.50
2018-09-20T09:02:56.257Z,18.93
2018-09-20T09:05:26.710Z,12.03
2018-09-20T09:07:56.186Z,13.70
2018-09-20T09:10:26.630Z,12.70
2018-09-20T09:12:59.306Z,10.77
2018-09-20T09:15:37.078Z,15.47
2018-09-20T09:18:07.450Z,10.63
2018-09-20T09:20:37.321Z,13.93
2018-09-20T09:23:11.710Z,13.73
2018-09-20T09:25:45.046Z,12.40
2018-09-20T09:28:17.386Z,13.87
2018-09-20T09:30:46.810Z,11.53
2018-09-20T09:33:30.058Z,11.70
2018-09-20T09:36:09.510Z,14.50
2018-09-20T09:38:43.158Z,9.93
2018-09-20T09:41:12.906Z,21.63
2018-09-20T09:43:48.870Z,12.73
2018-09-20T09:46:26.982Z,9.93
2018-09-20T09:48:56.738Z,10.40
2018-09-20T09:51:27.486Z,17.60
2018-09-20T09:53:59.009Z,9.73
2018-09-20T09:56:28.546Z,12.20
2018-09-20T09:59:12.598Z,11.23
2018-09-20T10:01:43.402Z,9.57
2018-09-20T10:04:19.283Z,9.67
2018-09-20T10:06:49.092Z,7.53
2018-09-20T10:09:23.006Z,8.27
2018-09-20T10:12:03.322Z,9.83
2018-09-20T10:14:39.174Z,13.93
2018-09-20T10:17:26.142Z,8.23
2018-09-20T10:19:55.624Z,7.17
2018-09-20T10:22:26.058Z,6.20
2018-09-20T10:24:56.490Z,6.97
2018-09-20T10:27:26.287Z,6.90
2018-09-20T10:30:11.864Z,5.23
2018-09-20T10:32:53.606Z,5.90
2018-09-20T10:35:23.365Z,16.33
2018-09-20T10:37:53.170Z,14.40
2018-09-20T10:40:26.794Z,5.17
2018-09-20T10:42:56.394Z,6.40
2018-09-20T10:45:28.065Z,4.60
2018-09-20T10:47:57.895Z,6.57
2018-09-20T10:50:27.723Z,4.87
2018-09-20T10:53:05.351Z,4.90
2018-09-20T10:55:35.954Z,4.97
2018-09-20T10:58:10.579Z,4.87
2018-09-20T11:00:42.094Z,4.57
2018-09-20T11:03:17.757Z,4.57
2018-09-20T11:05:47.202Z,7.20
2018-09-20T11:08:16.978Z,4.53
2018-09-20T11:10:59.682Z,5.80
2018-09-20T11:13:30.318Z,4.50
2018-09-20T11:16:03.055Z,5.13
2018-09-20T11:18:35.771Z,5.80
2018-09-20T11:21:09.084Z,6.10
2018-09-20T11:23:40.642Z,5.73
2018-09-20T11:26:11.130Z,5.40
2018-09-20T11:28:42.295Z,4.23
2018-09-20T11:31:25.578Z,4.93
2018-09-20T11:34:00.027Z,4.90
2018-09-20T11:36:33.018Z,5.97
2018-09-20T11:39:08.409Z,5.83
2018-09-20T11:41:40.263Z,7.47
2018-09-20T11:44:12.098Z,5.47
2018-09-20T11:46:42.034Z,4.07
2018-09-20T11:49:11.806Z,5.80
2018-09-20T11:51:43.238Z,4.50
2018-09-20T11:54:18.598Z,6.43
2018-09-20T11:56:48.295Z,4.00
2018-09-20T11:59:23.654Z,3.90
2018-09-20T12:01:53.500Z,3.60
2018-09-20T12:04:27.978Z,3.80
2018-09-20T12:07:00.705Z,4.93
2018-09-20T12:09:30.358Z,5.00
2018-09-20T12:12:05.382Z,4.30
2018-09-20T12:14:34.913Z,3.67
2018-09-20T12:17:11.862Z,7.63
2018-09-20T12:19:47.093Z,9.83
2018-09-20T12:22:16.634Z,4.30
2018-09-20T12:24:47.402Z,5.37
2018-09-20T12:27:20.606Z,5.87
2018-09-20T12:29:51.122Z,3.57
2018-09-20T12:32:22.742Z,4.13
2018-09-20T12:34:53.314Z,3.63
2018-09-20T12:37:29.211Z,3.53
2018-09-20T12:39:59.672Z,3.87
2018-09-20T12:42:29.162Z,5.97
2018-09-20T12:44:59.442Z,4.03
2018-09-20T12:47:30.046Z,4.97
2018-09-20T12:50:03.617Z,3.87
2018-09-20T12:52:34.094Z,7.93
2018-09-20T12:55:03.646Z,3.53
2018-09-20T12:57:39.914Z,9.40
2018-09-20T13:00:10.258Z,3.63
2018-09-20T13:02:41.781Z,8.43
2018-09-20T13:05:11.501Z,3.50
2018-09-20T13:07:41.058Z,4.13
2018-09-20T13:10:14.596Z,6.00
2018-09-20T13:12:54.521Z,2.90
2018-09-20T13:15:24.234Z,3.90
2018-09-20T13:17:55.006Z,3.50
2018-09-20T13:20:30.117Z,3.60
2018-09-20T13:23:00.642Z,3.90
2018-09-20T13:25:32.252Z,7.23
2018-09-20T13:28:01.690Z,3.30
2018-09-20T13:30:31.430Z,5.80
2018-09-20T13:33:01.206Z,3.50
2018-09-20T13:35:30.739Z,7.43
2018-09-20T13:38:07.699Z,3.27
2018-09-20T13:40:41.621Z,4.10
2018-09-20T13:43:30.748Z,5.00
2018-09-20T13:46:05.386Z,3.23
2018-09-20T13:48:36.172Z,3.53
2018-09-20T13:51:05.993Z,3.50
2018-09-20T13:53:37.605Z,3.30
2018-09-20T13:56:09.401Z,4.03
2018-09-20T13:58:41.833Z,6.43
2018-09-20T14:01:12.410Z,6.50
2018-09-20T14:03:46.507Z,3.13
2018-09-20T14:06:16.116Z,3.20
2018-09-20T14:08:48.045Z,10.53
2018-09-20T14:11:17.529Z,9.00
2018-09-20T14:13:47.253Z,7.27
2018-09-20T14:16:17.961Z,3.30
2018-09-20T14:18:48.709Z,3.73
2018-09-20T14:21:19.368Z,3.27
2018-09-20T14:23:52.321Z,5.83
2018-09-20T14:26:22.192Z,4.77
2018-09-20T14:28:59.372Z,8.10
2018-09-20T14:31:28.960Z,3.93
2018-09-20T14:34:01.556Z,4.00
2018-09-20T14:36:32.103Z,3.53
2018-09-20T14:39:02.584Z,6.20
2018-09-20T14:41:33.096Z,7.97
2018-09-20T14:44:03.548Z,3.40
2018-09-20T14:46:37.763Z,6.83
2018-09-20T14:49:07.597Z,11.50
2018-09-20T14:51:42.420Z,4.53
2018-09-20T14:54:16.404Z,3.13
2018-09-20T14:56:46.193Z,4.83
2018-09-20T14:59:18.065Z,4.23
2018-09-20T15:01:48.699Z,6.03
2018-09-20T15:04:27.837Z,3.80
2018-09-20T15:06:57.341Z,3.50
2018-09-20T15:09:28.893Z,8.00
2018-09-20T15:14:42.669Z,4.57
2018-09-20T15:17:12.493Z,5.37
2018-09-20T15:19:42.061Z,7.53
2018-09-20T15:22:14.796Z,5.10
2018-09-20T15:24:44.562Z,3.37
2018-09-20T15:27:15.753Z,3.00
2018-09-20T15:29:47.350Z,4.40
2018-09-20T15:32:19.134Z,3.97
2018-09-20T15:34:49.968Z,5.57
2018-09-20T15:37:20.582Z,4.83
2018-09-20T15:40:01.819Z,7.70
2018-09-20T15:42:31.489Z,4.30
2018-09-20T15:45:00.955Z,5.53
2018-09-20T15:47:30.954Z,4.40
2018-09-20T15:50:06.130Z,3.80
2018-09-20T15:52:36.834Z,9.07
2018-09-20T15:55:11.054Z,3.90
2018-09-20T15:57:40.562Z,4.33
2018-09-20T16:00:17.402Z,4.50
2018-09-20T16:02:47.314Z,4.23
2018-09-20T16:05:19.126Z,3.90
2018-09-20T16:07:51.694Z,5.07
2018-09-20T16:10:27.487Z,6.40
2018-09-20T16:12:57.066Z,3.27
2018-09-20T16:15:27.562Z,7.47
2018-09-20T16:18:04.562Z,8.30
2018-09-20T16:20:35.406Z,18.47
2018-09-20T16:23:05.982Z,3.93
2018-09-20T16:25:35.475Z,4.90
2018-09-20T16:28:19.182Z,5.23
2018-09-20T16:31:01.974Z,4.77
2018-09-20T16:35:51.042Z,6.17
2018-09-20T16:38:59.882Z,6.03
2018-09-20T16:41:33.642Z,5.50
2018-09-20T16:44:03.950Z,3.63
2018-09-20T16:46:38.050Z,5.30
2018-09-20T16:49:07.542Z,4.33
2018-09-20T16:51:37.306Z,4.70
2018-09-20T16:54:06.946Z,6.57
2018-09-20T16:56:36.397Z,6.77
2018-09-20T16:59:12.258Z,3.87
2018-09-20T17:01:42.814Z,5.47
2018-09-20T17:04:12.344Z,8.53
2018-09-20T17:06:41.846Z,7.10
2018-09-20T17:09:24.542Z,7.30
2018-09-20T17:11:56.074Z,5.27
2018-09-20T17:14:27.840Z,4.87
2018-09-20T17:16:57.410Z,5.57
2018-09-20T17:19:28.969Z,5.90
2018-09-20T17:21:59.706Z,6.23
2018-09-20T17:27:37.778Z,4.53
2018-09-20T17:30:07.307Z,7.93
2018-09-20T17:32:37.850Z,12.53
2018-09-20T17:35:09.086Z,5.20
2018-09-20T17:37:40.878Z,5.37
2018-09-20T17:40:11.074Z,5.07
2018-09-20T17:42:42.686Z,6.40
2018-09-20T17:45:12.466Z,6.53
2018-09-20T17:47:42.092Z,8.33
2018-09-20T17:50:12.702Z,5.70
2018-09-20T17:52:46.086Z,8.13
2018-09-20T17:55:16.067Z,5.70
2018-09-20T17:57:49.686Z,4.27
2018-09-20T18:00:21.850Z,4.97
2018-09-20T18:02:52.010Z,6.20
2018-09-20T18:05:22.354Z,9.63
2018-09-20T18:07:53.942Z,6.37
2018-09-20T18:10:23.538Z,7.10
2018-09-20T18:12:53.037Z,6.00
2018-09-20T18:15:22.890Z,5.27
2018-09-20T18:17:52.470Z,7.50
2018-09-20T18:20:22.910Z,8.93
2018-09-20T18:22:52.441Z,5.53
2018-09-20T18:25:21.994Z,5.07
2018-09-20T18:27:52.533Z,7.30
2018-09-20T18:30:24.074Z,6.30
2018-09-20T18:32:56.924Z,7.17
2018-09-20T18:35:30.598Z,16.63
2018-09-20T18:38:00.106Z,8.83
2018-09-20T18:40:29.612Z,6.77
2018-09-20T18:42:59.188Z,7.30
2018-09-20T18:45:29.102Z,7.03
2018-09-20T18:48:01.745Z,5.60
2018-09-20T18:50:39.353Z,14.13
2018-09-20T18:53:10.172Z,20.80
2018-09-20T18:55:42.006Z,8.23
2018-09-20T18:58:13.789Z,9.20
2018-09-20T19:00:45.321Z,13.13
2018-09-20T19:03:14.949Z,9.50
2018-09-20T19:05:45.401Z,7.37
2018-09-20T19:08:15.129Z,9.17
2018-09-20T19:10:50.613Z,7.50
2018-09-20T19:13:21.150Z,5.70
2018-09-20T19:15:51.621Z,7.00
2018-09-20T19:18:23.201Z,6.23
2018-09-20T19:20:53.702Z,8.73
2018-09-20T19:23:23.237Z,12.40
2018-09-20T19:25:52.889Z,10.00
2018-09-20T19:28:22.726Z,5.87
2018-09-20T19:30:58.485Z,9.00
2018-09-20T19:33:28.085Z,7.03
2018-09-20T19:35:57.624Z,7.90
2018-09-20T19:38:27.930Z,10.17
2018-09-20T19:40:58.505Z,8.67
2018-09-20T19:43:29.162Z,6.83
2018-09-20T19:45:58.681Z,5.53
2018-09-20T19:48:30.281Z,9.07
2018-09-20T19:50:59.881Z,7.17
2018-09-20T19:53:29.469Z,17.73
2018-09-20T19:56:00.230Z,9.27
2018-09-20T19:58:30.861Z,7.10
2018-09-20T20:01:02.375Z,10.67
2018-09-20T20:03:35.157Z,13.73
2018-09-20T20:06:04.947Z,8.07
2018-09-20T20:08:35.036Z,11.07
2018-09-20T20:11:07.977Z,12.07
2018-09-20T20:13:38.603Z,9.33
2018-09-20T20:16:10.136Z,8.70
2018-09-20T20:18:40.676Z,9.73
2018-09-20T20:21:12.480Z,8.30
2018-09-20T20:23:42.276Z,12.07
2018-09-20T20:26:17.860Z,12.00
2018-09-20T20:28:49.784Z,8.20
2018-09-20T20:31:19.704Z,8.57
2018-09-20T20:33:51.560Z,11.63
2018-09-20T20:36:21.495Z,13.27
2018-09-20T20:38:53.104Z,7.87
2018-09-20T20:41:23.116Z,8.90
2018-09-20T20:43:53.124Z,7.70
2018-09-20T20:46:24.196Z,8.57
2018-09-20T20:48:53.679Z,8.83
2018-09-20T20:51:23.203Z,7.40
2018-09-20T20:53:53.696Z,11.20
2018-09-20T20:56:23.240Z,8.70
2018-09-20T20:58:53.979Z,6.67
2018-09-20T21:01:23.711Z,8.03
2018-09-20T21:03:53.243Z,9.67
2018-09-20T21:06:25.104Z,9.53
2018-09-20T21:08:54.866Z,11.10
2018-09-20T21:11:24.836Z,9.47
2018-09-20T21:13:55.725Z,11.67
2018-09-20T21:16:25.425Z,7.20
2018-09-20T21:18:55.021Z,9.60
2018-09-20T21:21:28.357Z,10.20
2018-09-20T21:24:00.241Z,10.03
2018-09-20T21:26:29.901Z,10.30
2018-09-20T21:29:10.303Z,8.37
2018-09-20T21:31:40.154Z,8.47
2018-09-20T21:34:15.446Z,15.30
2018-09-20T21:36:46.541Z,12.00
2018-09-20T21:39:21.593Z,8.77
2018-09-20T21:41:52.085Z,11.67
2018-09-20T21:44:22.605Z,10.17
2018-09-20T21:46:52.513Z,8.53
2018-09-20T21:49:22.041Z,10.13
2018-09-20T21:51:57.497Z,8.53
2018-09-20T21:54:26.973Z,13.63
2018-09-20T21:56:57.505Z,9.47
2018-09-20T21:59:30.828Z,8.87
2018-09-20T22:02:02.493Z,7.93
2018-09-20T22:04:33.892Z,9.70
2018-09-20T22:07:03.609Z,6.83
2018-09-20T22:09:33.133Z,10.67
2018-09-20T22:12:02.617Z,8.37
2018-09-20T22:14:32.319Z,8.97
2018-09-20T22:17:03.968Z,12.33
2018-09-20T22:19:34.513Z,12.33
2018-09-20T22:22:06.905Z,8.40
2018-09-20T22:24:39.041Z,7.70
2018-09-20T22:27:09.425Z,9.77
2018-09-20T22:29:39.241Z,12.17
2018-09-20T22:32:09.953Z,8.70
2018-09-20T22:34:40.445Z,8.63
2018-09-20T22:37:10.217Z,11.00
2018-09-20T22:39:41.184Z,9.13
2018-09-20T22:42:11.394Z,12.40
2018-09-20T22:44:44.906Z,10.33
2018-09-20T22:47:16.406Z,9.03
2018-09-20T22:49:45.965Z,12.30
2018-09-20T22:52:15.509Z,11.03
2018-09-20T22:54:44.977Z,13.40
2018-09-20T22:57:15.441Z,8.13
2018-09-20T22:59:45.325Z,8.20
2018-09-20T23:02:15.025Z,8.00
2018-09-20T23:04:44.829Z,10.83
2018-09-20T23:07:16.413Z,10.17
2018-09-20T23:09:47.182Z,10.67
2018-09-20T23:12:16.780Z,10.67
2018-09-20T23:14:48.336Z,9.40
2018-09-20T23:17:17.964Z,10.30
2018-09-20T23:19:47.784Z,10.20
2018-09-20T23:22:19.385Z,7.43
2018-09-20T23:24:50.936Z,10.90
2018-09-20T23:27:21.809Z,8.63
2018-09-20T23:29:51.721Z,9.40
2018-09-20T23:32:21.785Z,11.17
2018-09-20T23:34:52.325Z,8.53
2018-09-20T23:37:22.880Z,8.33
2018-09-20T23:39:52.701Z,12.27
2018-09-20T23:42:23.534Z,9.13
2018-09-20T23:44:54.145Z,8.97
2018-09-20T23:47:24.885Z,10.83
2018-09-20T23:49:57.553Z,8.67
2018-09-20T23:52:27.061Z,9.10
2018-09-20T23:55:02.117Z,10.27
2018-09-20T23:57:31.881Z,9.40
